30 | 11 | 2022

Daten Vortag

Klimadaten von 10m Höhe gemessen, Station  

Datum / Zeit Intervall min Luftfeuchte % Temperatur °C Absoluter Luftdruck hPa Wind m/s Windböhen m/s Wind Richtung Relative Luftdruck hPa Taupunkt °C Windchill °C Niederschlag mm
29-11-2022 00:10 5 83 4.1 1014.7 3.6 6.1 E 1019.2 1.5 4.1 0.0
29-11-2022 00:15 5 83 4.1 1014.6 1.1 2.5 E 1019.1 1.5 4.1 0.0
29-11-2022 00:20 5 83 4.1 1014.7 2.5 5.0 E 1019.2 1.5 4.1 0.0
29-11-2022 00:25 5 83 4.1 1014.7 5.0 6.1 SE 1019.2 1.5 4.1 0.0
29-11-2022 00:30 5 83 4.1 1014.6 3.6 5.0 NW 1019.1 1.5 4.1 0.0
29-11-2022 00:35 5 83 4.1 1014.6 5.0 7.2 NE 1019.1 1.5 4.1 0.0
29-11-2022 00:40 5 83 4.1 1014.4 6.1 9.7 E 1018.9 1.5 4.1 0.0
29-11-2022 00:45 5 83 4.1 1014.5 5.0 7.2 E 1019.0 1.5 4.1 0.0
29-11-2022 00:50 5 83 4.1 1014.6 5.0 7.2 N 1019.1 1.5 4.1 0.0
29-11-2022 00:55 5 83 4.1 1014.7 6.1 7.2 E 1019.2 1.5 4.1 0.0
29-11-2022 01:00 5 83 4.1 1014.5 7.2 9.7 E 1019.0 1.5 2.7 0.0
29-11-2022 01:05 5 83 4.1 1014.4 6.1 8.6 NE 1018.9 1.5 4.1 0.0
29-11-2022 01:10 5 84 4.0 1014.7 9.7 12.2 E 1019.2 1.5 0.7 0.0
29-11-2022 01:15 5 84 4.1 1014.7 5.0 7.2 SE 1019.2 1.6 4.1 0.0
29-11-2022 01:20 5 84 4.0 1014.6 5.0 7.2 E 1019.1 1.5 4.0 0.0
29-11-2022 01:25 5 84 4.0 1014.5 7.2 11.2 E 1019.0 1.5 2.6 0.0
29-11-2022 01:30 5 84 4.0 1014.4 5.0 7.2 NE 1018.9 1.5 4.0 0.0
29-11-2022 01:35 5 84 4.0 1014.4 6.1 8.6 E 1018.9 1.5 4.0 0.0
29-11-2022 01:40 5 84 4.0 1014.5 6.1 9.7 SE 1019.0 1.5 4.0 0.0
29-11-2022 01:45 5 84 4.0 1014.7 8.6 14.8 NE 1019.2 1.5 1.5 0.0
29-11-2022 01:50 5 84 4.0 1014.6 6.1 8.6 SE 1019.1 1.5 4.0 0.0
29-11-2022 01:55 5 84 4.0 1014.5 7.2 11.2 E 1019.0 1.5 2.6 0.0
29-11-2022 02:00 5 84 4.0 1014.6 3.6 5.0 E 1019.1 1.5 4.0 0.0
29-11-2022 02:05 5 84 4.0 1014.6 5.0 7.2 E 1019.1 1.5 4.0 0.0
29-11-2022 02:10 5 84 3.9 1014.5 5.0 7.2 NW 1019.0 1.4 3.9 0.0
29-11-2022 02:15 5 84 3.9 1014.4 5.0 7.2 E 1018.9 1.4 3.9 0.0
29-11-2022 02:20 5 84 3.9 1014.5 8.6 9.7 E 1019.0 1.4 1.4 0.0
29-11-2022 02:25 5 84 3.9 1014.6 6.1 8.6 E 1019.1 1.4 3.9 0.0
29-11-2022 02:30 5 85 3.9 1014.5 2.5 5.0 E 1019.0 1.6 3.9 0.0
29-11-2022 02:35 5 85 3.9 1014.7 6.1 7.2 E 1019.2 1.6 3.9 0.0
29-11-2022 02:40 5 85 3.9 1014.7 6.1 9.7 E 1019.2 1.6 3.9 0.0
29-11-2022 02:45 5 85 3.9 1014.6 7.2 11.2 E 1019.1 1.6 2.5 0.0
29-11-2022 02:50 5 85 3.9 1014.6 6.1 8.6 NE 1019.1 1.6 3.9 0.0
29-11-2022 02:55 5 85 3.9 1014.7 5.0 7.2 N 1019.2 1.6 3.9 0.0
29-11-2022 03:00 5 85 3.9 1014.6 5.0 7.2 E 1019.1 1.6 3.9 0.0
29-11-2022 03:05 5 84 3.8 1014.7 5.0 8.6 E 1019.2 1.4 3.8 0.0
29-11-2022 03:10 5 84 3.8 1014.7 5.0 7.2 NE 1019.2 1.4 3.8 0.0
29-11-2022 03:15 5 84 3.8 1014.6 6.1 7.2 E 1019.1 1.4 3.8 0.0
29-11-2022 03:20 5 84 3.8 1014.7 5.0 7.2 E 1019.2 1.4 3.8 0.0
29-11-2022 03:25 5 84 3.8 1014.9 5.0 7.2 SEE 1019.4 1.4 3.8 0.0
29-11-2022 03:30 5 84 3.8 1014.7 3.6 6.1 E 1019.2 1.4 3.8 0.0
29-11-2022 03:35 5 84 3.8 1014.7 3.6 6.1 E 1019.2 1.4 3.8 0.0
29-11-2022 03:40 5 84 3.8 1014.7 5.0 7.2 NEE 1019.2 1.4 3.8 0.0
29-11-2022 03:45 5 84 3.8 1014.8 5.0 7.2 E 1019.3 1.4 3.8 0.0
29-11-2022 03:50 5 84 3.7 1014.8 6.1 7.2 E 1019.3 1.3 3.7 0.0
29-11-2022 03:55 5 84 3.7 1014.6 6.1 8.6 E 1019.1 1.3 3.7 0.0
29-11-2022 04:00 5 84 3.7 1014.9 6.1 9.7 N 1019.4 1.3 3.7 0.0
29-11-2022 04:05 5 84 3.7 1014.8 6.1 9.7 N 1019.3 1.3 3.7 0.0
29-11-2022 04:10 5 84 3.7 1014.7 6.1 8.6 E 1019.2 1.3 3.7 0.0
29-11-2022 04:15 5 84 3.7 1014.9 5.0 9.7 E 1019.4 1.3 3.7 0.0
29-11-2022 04:20 5 84 3.7 1014.7 8.6 12.2 E 1019.2 1.3 1.1 0.0
29-11-2022 04:25 5 84 3.7 1014.9 7.2 8.6 E 1019.4 1.3 2.3 0.0
29-11-2022 04:30 5 84 3.7 1015.0 7.2 9.7 E 1019.5 1.3 2.3 0.0
29-11-2022 04:35 5 84 3.7 1015.0 5.0 6.1 E 1019.5 1.3 3.7 0.0
29-11-2022 04:40 5 84 3.7 1015.1 8.6 11.2 E 1019.6 1.3 1.1 0.0
29-11-2022 04:45 5 84 3.7 1015.0 8.6 12.2 E 1019.5 1.3 1.1 0.0
29-11-2022 04:50 5 84 3.7 1015.0 6.1 9.7 NE 1019.5 1.3 3.7 0.0
29-11-2022 04:55 5 84 3.7 1015.1 7.2 9.7 E 1019.6 1.3 2.3 0.0
29-11-2022 05:00 5 85 3.7 1015.1 6.1 8.6 E 1019.6 1.4 3.7 0.0
29-11-2022 05:05 5 85 3.7 1015.1 6.1 9.7 E 1019.6 1.4 3.7 0.0
29-11-2022 05:10 5 85 3.7 1015.0 7.2 11.2 E 1019.5 1.4 2.3 0.0
29-11-2022 05:15 5 85 3.7 1015.0 7.2 9.7 NE 1019.5 1.4 2.3 0.0
29-11-2022 05:20 5 85 3.7 1015.1 6.1 8.6 NE 1019.6 1.4 3.7 0.0
29-11-2022 05:25 5 85 3.7 1015.2 3.6 6.1 E 1019.7 1.4 3.7 0.0
29-11-2022 05:30 5 85 3.6 1015.4 3.6 7.2 NEE 1019.9 1.3 3.6 0.0
29-11-2022 05:35 5 85 3.6 1015.3 7.2 9.7 E 1019.8 1.3 2.2 0.0
29-11-2022 05:40 5 85 3.6 1015.3 7.2 8.6 NE 1019.8 1.3 2.2 0.0
29-11-2022 05:45 5 85 3.6 1015.2 6.1 8.6 E 1019.7 1.3 3.6 0.0
29-11-2022 05:50 5 85 3.6 1015.4 8.6 12.2 E 1019.9 1.3 1.0 0.0
29-11-2022 05:55 5 85 3.6 1015.4 7.2 11.2 E 1019.9 1.3 2.2 0.0
29-11-2022 06:00 5 85 3.6 1015.4 7.2 12.2 E 1019.9 1.3 2.2 0.0
29-11-2022 06:05 5 85 3.6 1015.3 6.1 9.7 E 1019.8 1.3 3.6 0.0
29-11-2022 06:10 5 85 3.6 1015.3 6.1 8.6 E 1019.8 1.3 3.6 0.0
29-11-2022 06:15 5 85 3.6 1015.5 7.2 12.2 E 1020.0 1.3 2.2 0.0
29-11-2022 06:20 5 85 3.6 1015.6 6.1 8.6 E 1020.1 1.3 3.6 0.0
29-11-2022 06:25 5 85 3.6 1015.6 6.1 8.6 E 1020.1 1.3 3.6 0.0
29-11-2022 06:30 5 85 3.6 1015.7 7.2 8.6 E 1020.2 1.3 2.2 0.0
29-11-2022 06:35 5 85 3.6 1015.7 7.2 11.2 NE 1020.2 1.3 2.2 0.0
29-11-2022 06:40 5 85 3.6 1015.6 5.0 8.6 E 1020.1 1.3 3.6 0.0
29-11-2022 06:45 5 85 3.6 1015.7 6.1 7.2 E 1020.2 1.3 3.6 0.0
29-11-2022 06:50 5 85 3.6 1015.8 6.1 8.6 NE 1020.3 1.3 3.6 0.0
29-11-2022 06:55 5 85 3.6 1015.5 3.6 6.1 E 1020.0 1.3 3.6 0.0
29-11-2022 07:00 5 85 3.5 1015.9 2.5 5.0 SE 1020.4 1.2 3.5 0.0
29-11-2022 07:05 5 85 3.5 1015.9 5.0 7.2 E 1020.4 1.2 3.5 0.0
29-11-2022 07:10 5 85 3.5 1016.1 5.0 7.2 E 1020.6 1.2 3.5 0.0
29-11-2022 07:15 5 85 3.5 1016.1 3.6 6.1 E 1020.6 1.2 3.5 0.0
29-11-2022 07:20 5 85 3.5 1016.0 5.0 7.2 SEE 1020.5 1.2 3.5 0.0
29-11-2022 07:25 5 85 3.5 1015.9 3.6 6.1 E 1020.4 1.2 3.5 0.0
29-11-2022 07:30 5 85 3.5 1016.1 6.1 11.2 NE 1020.6 1.2 3.5 0.0
29-11-2022 07:35 5 85 3.5 1016.4 5.0 7.2 E 1020.9 1.2 3.5 0.0
29-11-2022 07:40 5 85 3.5 1016.3 3.6 5.0 E 1020.8 1.2 3.5 0.0
29-11-2022 07:45 5 85 3.5 1016.4 5.0 6.1 E 1020.9 1.2 3.5 0.0
29-11-2022 07:50 5 85 3.6 1016.3 6.1 9.7 N 1020.8 1.3 3.6 0.0
29-11-2022 07:55 5 85 3.6 1016.6 3.6 7.2 E 1021.1 1.3 3.6 0.0
29-11-2022 08:00 5 85 3.6 1016.4 2.5 5.0 E 1020.9 1.3 3.6 0.0
29-11-2022 08:05 5 85 3.6 1016.4 2.5 3.6 E 1020.9 1.3 3.6 0.0
29-11-2022 08:10 5 85 3.6 1016.5 3.6 6.1 E 1021.0 1.3 3.6 0.0
29-11-2022 08:15 5 85 3.6 1016.6 5.0 7.2 E 1021.1 1.3 3.6 0.0
29-11-2022 08:20 5 85 3.6 1016.8 5.0 6.1 E 1021.3 1.3 3.6 0.0
29-11-2022 08:25 5 85 3.6 1016.6 5.0 7.2 SE 1021.1 1.3 3.6 0.0
29-11-2022 08:30 5 85 3.7 1016.6 5.0 6.1 SEE 1021.1 1.4 3.7 0.0
29-11-2022 08:35 5 85 3.7 1016.9 3.6 6.1 E 1021.4 1.4 3.7 0.0
29-11-2022 08:40 5 85 3.7 1016.8 2.5 3.6 NE 1021.3 1.4 3.7 0.0
29-11-2022 08:45 5 85 3.7 1016.8 2.5 3.6 E 1021.3 1.4 3.7 0.0
29-11-2022 08:50 5 85 3.7 1016.9 2.5 3.6 NE 1021.4 1.4 3.7 0.0
29-11-2022 08:55 5 85 3.8 1016.9 1.1 2.5 E 1021.4 1.5 3.8 0.0
29-11-2022 09:00 5 85 3.8 1017.1 2.5 5.0 E 1021.6 1.5 3.8 0.0
29-11-2022 09:05 5 85 3.8 1016.9 2.5 3.6 N 1021.4 1.5 3.8 0.0
29-11-2022 09:10 5 85 3.8 1017.0 3.6 5.0 SE 1021.5 1.5 3.8 0.0
29-11-2022 09:15 5 85 3.9 1017.2 3.6 5.0 E 1021.7 1.6 3.9 0.0
29-11-2022 09:20 5 85 3.9 1017.0 3.6 5.0 SE 1021.5 1.6 3.9 0.0
29-11-2022 09:25 5 85 3.9 1017.1 3.6 6.1 E 1021.6 1.6 3.9 0.0
29-11-2022 09:30 5 85 3.9 1017.3 3.6 5.0 E 1021.8 1.6 3.9 0.0
29-11-2022 09:35 5 85 3.9 1017.2 2.5 3.6 E 1021.7 1.6 3.9 0.0
29-11-2022 09:40 5 85 3.9 1017.1 3.6 7.2 E 1021.6 1.6 3.9 0.0
29-11-2022 09:45 5 85 3.9 1017.1 6.1 7.2 NE 1021.6 1.6 3.9 0.0
29-11-2022 09:50 5 85 4.0 1017.3 2.5 5.0 SE 1021.8 1.7 4.0 0.0
29-11-2022 09:55 5 85 4.0 1017.4 3.6 7.2 SEE 1021.9 1.7 4.0 0.0
29-11-2022 10:00 5 85 4.0 1017.2 5.0 7.2 E 1021.7 1.7 4.0 0.0
29-11-2022 10:05 5 85 4.0 1017.3 6.1 8.6 E 1021.8 1.7 4.0 0.0
29-11-2022 10:10 5 85 4.0 1017.5 8.6 9.7 N 1022.0 1.7 1.5 0.0
29-11-2022 10:15 5 85 4.1 1017.2 1.1 3.6 E 1021.7 1.8 4.1 0.0
29-11-2022 10:20 5 85 4.1 1017.3 3.6 6.1 SSE 1021.8 1.8 4.1 0.0
29-11-2022 10:25 5 85 4.1 1017.5 3.6 6.1 E 1022.0 1.8 4.1 0.0
29-11-2022 10:30 5 85 4.1 1017.4 2.5 5.0 SEE 1021.9 1.8 4.1 0.0
29-11-2022 10:35 5 85 4.1 1017.6 3.6 6.1 E 1022.1 1.8 4.1 0.0
29-11-2022 10:40 5 85 4.1 1017.4 2.5 3.6 E 1021.9 1.8 4.1 0.0
29-11-2022 10:45 5 85 4.1 1017.5 5.0 7.2 E 1022.0 1.8 4.1 0.0
29-11-2022 10:50 5 85 4.2 1017.6 6.1 8.6 SEE 1022.1 1.9 4.2 0.0
29-11-2022 10:55 5 85 4.2 1017.7 6.1 8.6 E 1022.2 1.9 4.2 0.0
29-11-2022 11:00 5 85 4.1 1017.7 5.0 7.2 E 1022.2 1.8 4.1 0.0
29-11-2022 11:05 5 85 4.1 1017.7 5.0 7.2 SEE 1022.2 1.8 4.1 0.0
29-11-2022 11:10 5 84 4.1 1017.6 8.6 11.2 E 1022.1 1.6 1.6 0.0
29-11-2022 11:15 5 84 4.1 1017.7 3.6 6.1 NE 1022.2 1.6 4.1 0.0
29-11-2022 11:20 5 84 4.1 1017.6 3.6 5.0 E 1022.1 1.6 4.1 0.0
29-11-2022 11:25 5 84 4.2 1018.0 6.1 7.2 E 1022.5 1.7 4.2 0.0
29-11-2022 11:30 5 84 4.2 1017.8 3.6 5.0 E 1022.3 1.7 4.2 0.0
29-11-2022 11:35 5 84 4.2 1017.8 3.6 6.1 NE 1022.3 1.7 4.2 0.0
29-11-2022 11:40 5 84 4.2 1018.0 7.2 9.7 E 1022.5 1.7 2.8 0.0
29-11-2022 11:45 5 85 4.2 1018.1 2.5 3.6 E 1022.6 1.9 4.2 0.0
29-11-2022 11:50 5 85 4.2 1018.0 2.5 5.0 NW 1022.5 1.9 4.2 0.0
29-11-2022 11:55 5 85 4.2 1017.9 3.6 5.0 E 1022.4 1.9 4.2 0.0
29-11-2022 12:00 5 85 4.2 1017.9 2.5 5.0 E 1022.4 1.9 4.2 0.0
29-11-2022 12:05 5 85 4.2 1017.9 2.5 5.0 E 1022.4 1.9 4.2 0.0
29-11-2022 12:10 5 85 4.2 1018.1 1.1 3.6 E 1022.6 1.9 4.2 0.0
29-11-2022 12:15 5 85 4.3 1018.1 2.5 3.6 NE 1022.6 2.0 4.3 0.0
29-11-2022 12:20 5 85 4.3 1017.9 3.6 6.1 E 1022.4 2.0 4.3 0.0
29-11-2022 12:25 5 85 4.3 1018.0 2.5 3.6 E 1022.5 2.0 4.3 0.0
29-11-2022 12:30 5 84 4.3 1018.0 5.0 6.1 E 1022.5 1.8 4.3 0.0
29-11-2022 12:35 5 84 4.4 1018.1 3.6 5.0 E 1022.6 1.9 4.4 0.0
29-11-2022 12:40 5 84 4.5 1018.0 5.0 6.1 E 1022.5 2.0 4.5 0.0
29-11-2022 12:45 5 84 4.4 1018.1 6.1 7.2 E 1022.6 1.9 4.4 0.0
29-11-2022 12:52 5 84 4.4 1018.0 5.0 8.6 E 1022.5 1.9 4.4 0.0
29-11-2022 12:57 5 84 4.4 1018.1 3.6 5.0 NE 1022.6 1.9 4.4 0.0
29-11-2022 13:02 5 84 4.5 1018.1 3.6 5.0 SE 1022.6 2.0 4.5 0.0
29-11-2022 13:07 5 84 4.5 1018.1 3.6 7.2 SEE 1022.6 2.0 4.5 0.0
29-11-2022 13:12 5 84 4.5 1018.0 3.6 6.1 E 1022.5 2.0 4.5 0.0
29-11-2022 13:17 5 84 4.6 1018.1 5.0 6.1 E 1022.6 2.1 4.6 0.0
29-11-2022 13:22 5 84 4.6 1018.2 5.0 8.6 E 1022.7 2.1 4.6 0.0
29-11-2022 13:27 5 84 4.6 1018.3 3.6 6.1 E 1022.8 2.1 4.6 0.0
29-11-2022 13:32 5 84 4.6 1018.3 6.1 7.2 E 1022.8 2.1 4.6 0.0
29-11-2022 13:37 5 84 4.6 1018.1 5.0 6.1 E 1022.6 2.1 4.6 0.0
29-11-2022 13:42 5 84 4.7 1018.3 3.6 6.1 SEE 1022.8 2.2 4.7 0.0
29-11-2022 13:47 5 84 4.7 1018.4 3.6 6.1 E 1022.9 2.2 4.7 0.0
29-11-2022 13:52 5 84 4.7 1018.5 5.0 7.2 E 1023.0 2.2 4.7 0.0
29-11-2022 13:57 5 84 4.7 1018.2 3.6 5.0 E 1022.7 2.2 4.7 0.0
29-11-2022 14:02 5 84 4.7 1018.4 3.6 5.0 SEE 1022.9 2.2 4.7 0.0
29-11-2022 14:07 5 84 4.7 1018.4 3.6 5.0 SEE 1022.9 2.2 4.7 0.0
29-11-2022 14:12 5 84 4.8 1018.3 6.1 7.2 E 1022.8 2.3 4.8 0.0
29-11-2022 14:17 5 84 4.8 1018.5 3.6 5.0 E 1023.0 2.3 4.8 0.0
29-11-2022 14:22 5 84 4.7 1018.5 6.1 7.2 E 1023.0 2.2 4.7 0.0
29-11-2022 14:27 5 83 4.7 1018.5 2.5 5.0 E 1023.0 2.1 4.7 0.0
29-11-2022 14:32 5 83 4.7 1018.8 8.6 11.2 E 1023.3 2.1 2.2 0.0
29-11-2022 14:37 5 83 4.7 1018.7 5.0 6.1 E 1023.2 2.1 4.7 0.0
29-11-2022 14:42 5 83 4.7 1018.7 3.6 5.0 E 1023.2 2.1 4.7 0.0
29-11-2022 14:47 5 83 4.7 1018.9 5.0 7.2 E 1023.4 2.1 4.7 0.0
29-11-2022 14:52 5 83 4.7 1019.0 5.0 6.1 E 1023.5 2.1 4.7 0.0
29-11-2022 14:57 5 83 4.7 1018.7 3.6 6.1 E 1023.2 2.1 4.7 0.0
29-11-2022 15:02 5 83 4.7 1019.0 3.6 5.0 E 1023.5 2.1 4.7 0.0
29-11-2022 15:07 5 83 4.7 1018.9 2.5 5.0 N 1023.4 2.1 4.7 0.0
29-11-2022 15:12 5 83 4.7 1018.9 3.6 5.0 E 1023.4 2.1 4.7 0.0
29-11-2022 15:17 5 83 4.7 1018.9 1.1 2.5 E 1023.4 2.1 4.7 0.0
29-11-2022 15:22 5 83 4.7 1018.9 5.0 6.1 NE 1023.4 2.1 4.7 0.0
29-11-2022 15:27 5 83 4.7 1018.9 3.6 5.0 NE 1023.4 2.1 4.7 0.0
29-11-2022 15:32 5 83 4.7 1019.0 5.0 8.6 E 1023.5 2.1 4.7 0.0
29-11-2022 15:37 5 83 4.7 1018.8 3.6 5.0 E 1023.3 2.1 4.7 0.0
29-11-2022 15:42 5 83 4.7 1019.0 2.5 3.6 E 1023.5 2.1 4.7 0.0
29-11-2022 15:47 5 83 4.7 1019.0 3.6 7.2 E 1023.5 2.1 4.7 0.0
29-11-2022 15:52 5 83 4.6 1019.0 3.6 6.1 E 1023.5 2.0 4.6 0.0
29-11-2022 15:57 5 83 4.6 1019.1 6.1 7.2 E 1023.6 2.0 4.6 0.0
29-11-2022 16:02 5 83 4.6 1019.2 6.1 8.6 E 1023.7 2.0 4.6 0.0
29-11-2022 16:07 5 83 4.6 1018.8 5.0 6.1 E 1023.3 2.0 4.6 0.0
29-11-2022 16:12 5 83 4.6 1019.0 3.6 6.1 NE 1023.5 2.0 4.6 0.0
29-11-2022 16:17 5 83 4.6 1019.1 5.0 7.2 NE 1023.6 2.0 4.6 0.0
29-11-2022 16:22 5 83 4.6 1019.0 3.6 8.6 E 1023.5 2.0 4.6 0.0
29-11-2022 16:27 5 83 4.6 1019.1 2.5 3.6 E 1023.6 2.0 4.6 0.0
29-11-2022 16:32 5 83 4.6 1019.1 6.1 8.6 E 1023.6 2.0 4.6 0.0
29-11-2022 16:37 5 83 4.6 1019.3 3.6 5.0 E 1023.8 2.0 4.6 0.0
29-11-2022 16:42 5 83 4.6 1019.4 6.1 8.6 SE 1023.9 2.0 4.6 0.0
29-11-2022 16:47 5 83 4.6 1019.2 6.1 8.6 E 1023.7 2.0 4.6 0.0
29-11-2022 16:52 5 83 4.6 1019.2 7.2 9.7 E 1023.7 2.0 3.2 0.0
29-11-2022 16:57 5 83 4.6 1019.0 3.6 7.2 E 1023.5 2.0 4.6 0.0
29-11-2022 17:02 5 83 4.6 1019.3 6.1 9.7 E 1023.8 2.0 4.6 0.0
29-11-2022 17:07 5 83 4.6 1019.3 6.1 9.7 E 1023.8 2.0 4.6 0.0
29-11-2022 17:12 5 83 4.6 1019.5 3.6 6.1 NE 1024.0 2.0 4.6 0.0
29-11-2022 17:17 5 83 4.6 1019.5 5.0 7.2 E 1024.0 2.0 4.6 0.0
29-11-2022 17:22 5 83 4.5 1019.6 5.0 8.6 E 1024.1 1.9 4.5 0.0
29-11-2022 17:27 5 83 4.5 1019.5 3.6 5.0 E 1024.0 1.9 4.5 0.0
29-11-2022 17:32 5 83 4.5 1019.4 5.0 7.2 N 1023.9 1.9 4.5 0.0
29-11-2022 17:37 5 83 4.5 1019.5 3.6 6.1 E 1024.0 1.9 4.5 0.0
29-11-2022 17:42 5 83 4.5 1019.5 5.0 6.1 E 1024.0 1.9 4.5 0.0
29-11-2022 17:47 5 83 4.5 1019.5 5.0 7.2 E 1024.0 1.9 4.5 0.0
29-11-2022 17:52 5 83 4.5 1019.4 6.1 9.7 E 1023.9 1.9 4.5 0.0
29-11-2022 17:57 5 83 4.5 1019.8 6.1 9.7 NEE 1024.3 1.9 4.5 0.0
29-11-2022 18:02 5 83 4.5 1019.6 6.1 9.7 E 1024.1 1.9 4.5 0.0
29-11-2022 18:07 5 83 4.5 1019.5 2.5 6.1 NE 1024.0 1.9 4.5 0.0
29-11-2022 18:12 5 83 4.5 1019.9 5.0 8.6 NE 1024.4 1.9 4.5 0.0
29-11-2022 18:17 5 83 4.5 1019.6 5.0 6.1 NEE 1024.1 1.9 4.5 0.0
29-11-2022 18:22 5 83 4.5 1019.5 5.0 8.6 E 1024.0 1.9 4.5 0.0
29-11-2022 18:27 5 83 4.5 1019.9 8.6 11.2 E 1024.4 1.9 2.0 0.0
29-11-2022 18:32 5 83 4.6 1019.7 5.0 7.2 NE 1024.2 2.0 4.6 0.0
29-11-2022 18:37 5 83 4.6 1019.7 5.0 6.1 E 1024.2 2.0 4.6 0.0
29-11-2022 18:42 5 83 4.6 1019.8 5.0 7.2 E 1024.3 2.0 4.6 0.0
29-11-2022 18:47 5 83 4.6 1020.0 3.6 5.0 NE 1024.5 2.0 4.6 0.0
29-11-2022 18:52 5 83 4.6 1020.1 5.0 7.2 E 1024.6 2.0 4.6 0.0
29-11-2022 18:57 5 83 4.6 1020.1 3.6 6.1 E 1024.6 2.0 4.6 0.0
29-11-2022 19:02 5 83 4.6 1020.1 6.1 8.6 NE 1024.6 2.0 4.6 0.0
29-11-2022 19:07 5 83 4.6 1020.3 3.6 5.0 E 1024.8 2.0 4.6 0.0
29-11-2022 19:12 5 83 4.5 1020.3 5.0 9.7 E 1024.8 1.9 4.5 0.0
29-11-2022 19:17 5 83 4.5 1020.1 5.0 7.2 E 1024.6 1.9 4.5 0.0
29-11-2022 19:22 5 83 4.5 1020.0 2.5 3.6 E 1024.5 1.9 4.5 0.0
29-11-2022 19:27 5 83 4.5 1020.3 3.6 5.0 SE 1024.8 1.9 4.5 0.0
29-11-2022 19:32 5 84 4.5 1020.3 5.0 7.2 NEE 1024.8 2.0 4.5 0.0
29-11-2022 19:37 5 84 4.5 1020.2 3.6 5.0 NEE 1024.7 2.0 4.5 0.0
29-11-2022 19:42 5 84 4.5 1020.3 2.5 5.0 NE 1024.8 2.0 4.5 0.0
29-11-2022 19:47 5 84 4.5 1020.3 1.1 2.5 E 1024.8 2.0 4.5 0.0
29-11-2022 19:52 5 84 4.5 1020.4 2.5 3.6 E 1024.9 2.0 4.5 0.0
29-11-2022 19:57 5 84 4.4 1020.3 2.5 5.0 N 1024.8 1.9 4.4 0.0
29-11-2022 20:02 5 84 4.4 1020.4 0.0 0.0 N 1024.9 1.9 4.4 0.0
29-11-2022 20:07 5 84 4.4 1020.4 0.0 1.1 N 1024.9 1.9 4.4 0.0
29-11-2022 20:12 5 84 4.3 1020.4 3.6 6.1 NEE 1024.9 1.8 4.3 0.0
29-11-2022 20:17 5 84 4.3 1020.6 0.0 1.1 SE 1025.1 1.8 4.3 0.0
29-11-2022 20:22 5 84 4.3 1020.5 1.1 3.6 E 1025.0 1.8 4.3 0.0
29-11-2022 20:27 5 84 4.3 1020.4 2.5 5.0 E 1024.9 1.8 4.3 0.0
29-11-2022 20:32 5 84 4.2 1020.6 1.1 3.6 E 1025.1 1.7 4.2 0.0
29-11-2022 20:37 5 85 4.2 1020.5 2.5 3.6 N 1025.0 1.9 4.2 0.0
29-11-2022 20:42 5 85 4.2 1020.5 1.1 2.5 NE 1025.0 1.9 4.2 0.0
29-11-2022 20:47 5 85 4.2 1020.5 1.1 3.6 E 1025.0 1.9 4.2 0.0
29-11-2022 20:52 5 85 4.2 1020.5 2.5 3.6 N 1025.0 1.9 4.2 0.0
29-11-2022 20:57 5 85 4.2 1020.7 2.5 8.6 E 1025.2 1.9 4.2 0.0
29-11-2022 21:02 5 85 4.2 1020.6 3.6 6.1 NE 1025.1 1.9 4.2 0.0
29-11-2022 21:07 5 85 4.2 1020.6 1.1 3.6 E 1025.1 1.9 4.2 0.0
29-11-2022 21:12 5 85 4.2 1020.8 2.5 3.6 E 1025.3 1.9 4.2 0.0
29-11-2022 21:17 5 85 4.2 1020.8 1.1 3.6 NE 1025.3 1.9 4.2 0.0
29-11-2022 21:22 5 85 4.2 1020.8 2.5 3.6 SE 1025.3 1.9 4.2 0.0
29-11-2022 21:27 5 85 4.2 1020.6 0.0 1.1 N 1025.1 1.9 4.2 0.0
29-11-2022 21:32 5 86 4.2 1020.9 0.0 1.1 NE 1025.4 2.1 4.2 0.0
29-11-2022 21:37 5 86 4.2 1020.8 1.1 2.5 E 1025.3 2.1 4.2 0.0
29-11-2022 21:42 5 86 4.2 1020.9 0.0 1.1 NE 1025.4 2.1 4.2 0.0
29-11-2022 21:47 5 86 4.2 1020.6 5.0 6.1 E 1025.1 2.1 4.2 0.0
29-11-2022 21:52 5 85 4.2 1020.8 0.0 1.1 NW 1025.3 1.9 4.2 0.0
29-11-2022 21:57 5 85 4.2 1020.8 3.6 5.0 NE 1025.3 1.9 4.2 0.0
29-11-2022 22:02 5 85 4.2 1020.6 0.0 1.1 NE 1025.1 1.9 4.2 0.0
29-11-2022 22:07 5 85 4.2 1020.6 1.1 2.5 NE 1025.1 1.9 4.2 0.0
29-11-2022 22:12 5 85 4.2 1020.9 2.5 3.6 E 1025.4 1.9 4.2 0.0
29-11-2022 22:17 5 85 4.2 1020.6 0.0 1.1 NE 1025.1 1.9 4.2 0.0
29-11-2022 22:22 5 85 4.2 1021.1 2.5 5.0 E 1025.6 1.9 4.2 0.0
29-11-2022 22:27 5 85 4.2 1021.0 2.5 3.6 E 1025.5 1.9 4.2 0.0
29-11-2022 22:32 5 85 4.2 1021.1 1.1 2.5 NE 1025.6 1.9 4.2 0.0
29-11-2022 22:37 5 85 4.2 1021.0 2.5 5.0 NE 1025.5 1.9 4.2 0.0
29-11-2022 22:42 5 85 4.2 1020.9 0.0 1.1 NE 1025.4 1.9 4.2 0.0
29-11-2022 22:47 5 85 4.2 1020.6 0.0 1.1 E 1025.1 1.9 4.2 0.0
29-11-2022 22:52 5 85 4.2 1020.9 1.1 3.6 E 1025.4 1.9 4.2 0.0
29-11-2022 22:57 5 85 4.2 1020.9 2.5 3.6 NE 1025.4 1.9 4.2 0.0
29-11-2022 23:02 5 85 4.2 1020.9 5.0 6.1 E 1025.4 1.9 4.2 0.0
29-11-2022 23:07 5 85 4.2 1020.8 5.0 6.1 E 1025.3 1.9 4.2 0.0
29-11-2022 23:12 5 85 4.2 1020.9 2.5 5.0 E 1025.4 1.9 4.2 0.0
29-11-2022 23:17 5 85 4.2 1021.1 1.1 3.6 E 1025.6 1.9 4.2 0.0
29-11-2022 23:22 5 85 4.2 1021.0 1.1 2.5 E 1025.5 1.9 4.2 0.0
29-11-2022 23:27 5 85 4.2 1021.1 1.1 2.5 E 1025.6 1.9 4.2 0.0
29-11-2022 23:32 5 85 4.2 1021.0 6.1 7.2 E 1025.5 1.9 4.2 0.0
29-11-2022 23:37 5 85 4.2 1021.1 2.5 3.6 E 1025.6 1.9 4.2 0.0
29-11-2022 23:42 5 85 4.2 1021.0 3.6 6.1 E 1025.5 1.9 4.2 0.0
29-11-2022 23:47 5 85 4.2 1021.0 3.6 6.1 E 1025.5 1.9 4.2 0.0
29-11-2022 23:52 5 85 4.1 1020.8 2.5 5.0 NE 1025.3 1.8 4.1 0.0
29-11-2022 23:57 5 85 4.1 1021.3 2.5 5.0 E 1025.8 1.8 4.1 0.0

 

Tagesdaten                                                                       Tabelle: 07:00  UHR 

STATIONHÖHELUFTD.TEMP.T-MinT-MaxU%RR1RR12SSSDDFFFXWetter+WolkenBöen
UFS TW Ems 0 ------ --- --- --- --- ---- --- --- -- --- --- --- ---
UFS Deutsche Bucht 0 ------ --- --- --- --- ---- --- --- -- --- --- --- ---
Helgoland 4 1015.9 6.3 6.3 7.3 94 0.0 6 0 SO 27 36 Regen ---
List/Sylt 26 1017.5 4.7 4.3 4.7 95 0.1 4 0 -- --- --- Regen ---
Schleswig 43 1017.5 4.0 3.9 4.2 90 0.0 3 0 O 14 24 Dunst oder flacher Nebel ---
Leuchtturm Kiel 5 1017.9 4.5 4.3 5.4 90 ---- --- --- SO 27 38 --- ---
Kiel 27 1017.6 4.3 4.2 4.8 90 0.0 2 0 SO 13 20 --- ---
Fehmarn 3 1018.4 4.0 3.9 5.0 93 0.1 2 0 SO 18 26 leichter Regen ---
Arkona 42 1020.3 5.3 4.8 5.6 84 0.0 0 0 SO 39 48 --- ---
Norderney 11 1014.8 7.8 7.0 7.8 98 0.0 2 0 SW 10 17 --- ---
Leuchtt. Alte Weser 32 1015.5 4.9 4.9 5.8 97 ---- --- --- SO 25 --- --- ---
Cuxhaven 5 1016.3 4.4 4.4 4.9 96 0.7 4 0 SO 23 32 Regen ---
Hamburg-Flh. 11 1017.1 3.7 3.7 4.7 90 0.0 0 0 O 11 21 --- ---
Schwerin 59 1017.6 3.7 3.5 4.7 88 0.0 0 0 SO 12 22 --- ---
Rostock 4 1018.7 3.3 3.1 4.5 86 0.0 0 0 SO 13 30 --- ---
Greifswald 2 1019.8 2.8 2.0 3.8 86 0.0 0 0 O 15 26 --- ---
Emden 0 1015.2 7.2 7.0 7.6 99 0.0 1 0 S 8 11 Nebel ---
Bremen-Flh. 5 1016.2 4.7 4.6 5.3 96 0.2 2 --- O 5 9 Regen ---
Lüchow 17 1017.2 3.1 3.0 5.1 92 0.0 0 0 O 5 13 Dunst oder flacher Nebel ---
Marnitz 81 1018.0 2.6 2.6 3.9 95 0.0 0 0 SO 7 13 Regen ---
Waren 70 1018.4 2.7 2.6 3.6 89 0.0 0 0 O 12 23 Dunst oder flacher Nebel ---
Neuruppin 38 1017.9 2.4 2.3 3.0 92 0.0 0 0 O 8 17 --- ---
Angermünde 56 1019.0 2.2 2.2 3.4 92 0.0 0 0 O 14 19 Dunst oder flacher Nebel ---
Münster/Osnabr.-Flh. 48 1016.1 6.6 6.3 6.9 99 0.1 0 0 SO 2 2 Nebel ---
Hannover-Flh. 59 1016.3 4.2 4.2 5.1 92 0.0 0 0 O 7 11 Regen ---
Magdeburg 76 1016.5 4.3 3.8 5.1 93 0.0 0 0 O 3 9 Regen ---
Potsdam 81 1017.4 2.4 2.3 3.6 96 0.0 0 0 O 12 22 leichter Regen ---
Berlin-Brandenburg-Flgh. 46 1017.8 2.5 2.3 3.2 92 ---- --- --- O 12 18 --- ---
Berlin-Tempelhof 48 1017.8 3.0 2.8 3.6 91 0.0 0 0 O 12 21 --- ---
Berlin-Dahlem 51 1017.6 2.7 2.5 3.5 --- ---- 0 0 O 7 --- leichter Regen ---
Lindenberg 91 1018.2 2.2 2.1 3.0 90 0.0 0 0 O 12 21 --- ---
Düsseldorf-Flh. 45 1016.4 7.7 7.7 8.5 100 0.0 1 --- NW 5 9 Dunst oder flacher Nebel ---
Essen 150 1016.4 7.2 7.2 8.1 99 0.0 5 0 W 5 13 Dunst oder flacher Nebel ---
Kahler Asten 839 ------ 3.6 1.4 3.8 100 0.2 1 0 NW 8 15 leichter Regen ---
Bad Lippspringe 157 1016.0 6.0 5.3 6.0 100 0.0 1 0 W 2 4 Nebel ---
Fritzlar 174 1016.0 5.4 5.2 6.0 97 ---- 3 0 NW 4 --- leichter Regen ---
Brocken 1142 ------ 0.4 0.1 1.8 99 0.0 0 0 N 8 9 Nebel ---
Leipzig-Flh. 142 1016.4 4.2 4.0 5.1 97 0.0 0 0 SO 10 17 Regen ---
Dresden-Flh. 227 1017.5 3.7 3.7 4.7 90 0.0 0 0 SO 21 31 leichter Regen ---
Cottbus 69 1018.2 2.7 2.0 3.4 91 0.0 0 0 O 6 13 leichter Regen ---
Görlitz 238 1018.6 3.6 2.1 4.3 84 0.0 0 0 S 23 34 leichter Regen ---
Aachen 231 1016.8 6.7 6.2 7.2 98 0.0 0 0 W 6 8 --- ---
Nürburg 485 1016.9 4.4 4.3 5.9 98 0.0 0 0 SW 5 9 Dunst oder flacher Nebel ---
Köln/Bonn-Flh. 92 1016.5 7.8 6.5 7.8 98 0.2 0 --- W 8 11 Regen ---
Gießen/Wettenberg 203 1016.2 5.6 5.2 5.6 100 0.3 5 0 S 4 5 Regen ---
Wasserkuppe 921 ------ 2.6 1.2 2.9 100 0.0 1 0 W 6 10 Nebel ---
Meiningen 450 1016.7 2.8 2.5 2.9 99 0.1 3 0 S 9 12 Regen ---
Erfurt 316 1016.0 4.7 4.0 4.8 98 0.1 1 --- S 8 10 --- ---
Gera 311 1016.6 3.2 2.8 3.4 93 0.0 1 0 S 20 26 leichter Regen ---
Fichtelberg 1213 ------ -0.5 -0.5 1.9 98 0.1 1 6 S 26 32 Glatteisbildung ---
Trier 265 1016.6 6.6 6.6 7.6 100 ---- --- 0 SW 4 7 Nebel ---
Hahn-Flh. 497 1016.4 5.2 5.1 6.1 99 0.0 1 0 NW 7 13 --- ---
Frankfurt/M-Flh. 112 1016.3 6.0 5.8 6.2 100 0.0 3 0 O 2 5 leichter Regen ---
OF-Wetterpark 119 1016.3 6.1 5.6 6.3 98 0.0 3 0 - 0 5 Regen ---
Würzburg 268 1016.9 4.1 4.0 4.9 96 0.1 2 0 NO 6 9 leichter Regen ---
Bamberg 239 1016.8 3.9 3.7 5.0 98 0.0 1 0 - 0 2 leichter Regen ---
Hof 567 1017.3 1.6 1.1 1.6 95 0.0 1 0 S 13 23 --- ---
Weiden 438 1017.8 2.2 1.7 2.8 95 0.1 1 0 - 0 3 Regen ---
Saarbrücken-Flh. 320 1016.6 6.6 6.6 7.2 98 0.0 3 --- W 6 9 Dunst oder flacher Nebel ---
Karlsruhe-Rheinst. 116 1016.1 7.6 7.0 7.9 97 0.5 6 0 SW 9 16 leichter Regen ---
Mannheim 96 1016.1 6.7 6.6 7.1 98 0.0 4 0 N 4 8 Regen ---
Stuttgart-Flh. 371 1015.4 6.2 5.6 6.3 96 0.0 3 0 SW 7 11 --- ---
Öhringen 276 1015.9 6.1 5.8 6.5 97 0.3 3 0 NW 4 5 leichter Regen ---
Nürnberg-Flh. 314 1016.7 3.6 2.8 4.2 96 0.0 0 0 O 8 11 leichter Regen ---
Regensburg 366 1017.7 2.8 2.5 2.8 96 0.2 2 0 SO 8 17 Regen ---
Straubing 351 1017.9 2.4 1.1 2.6 98 0.2 1 0 O 6 10 Regen ---
Großer Arber 1436 ------ -1.1 -1.8 1.2 99 0.3 1 35 S 13 15 leichter Schneefall ---
Lahr 155 1016.5 6.9 5.8 8.9 94 0.0 0 0 S 4 6 --- ---
Freudenstadt 797 ------ 3.4 3.3 5.1 96 ---- --- 0 W 16 25 --- ---
Stötten 734 1015.7 4.1 3.0 4.7 100 1.0 3 0 W 12 22 Regen ---
Augsburg 462 ------ --- --- --- --- ---- --- --- -- --- --- --- ---
München-Flh. 444 1017.0 3.3 2.9 3.7 96 0.2 3 0 O 6 11 Regen ---
Fürstenzell 476 1018.0 1.8 1.3 2.2 100 0.3 2 0 S 6 9 Regen ---
Feldberg/Schw. 1486 ------ -1.5 -1.5 0.4 98 0.0 1 17 N 19 26 gefrierender Nebel ---
Konstanz 443 1016.5 4.9 4.4 7.9 96 0.0 0 0 N 5 7 --- ---
Kempten 705 1016.0 4.3 4.0 5.2 97 0.8 1 0 S 4 8 leichter Regen ---
Oberstdorf 806 ------ 3.1 2.5 4.4 97 0.2 0 0 S 2 7 Regen ---
Zugspitze 2960 ------ -9.1 -9.1 -7.0 91 ---- --- 53 N 12 19 leichter Schneefall ---
Hohenpeißenberg 977 ------ 2.6 2.4 5.8 98 0.4 2 0 W 6 18 Regen ---

                                                                                                         Tabelle: 19:00 UHR 

STATIONHÖHELUFTD.TEMP.T-MinT-MaxU%RR1RR12SSSDDFFFXWetter+WolkenBöen
UFS TW Ems 0 ------ --- --- --- --- ---- --- --- -- --- --- --- ---
UFS Deutsche Bucht 26 ------ --- --- --- --- ---- --- --- -- --- --- --- ---
Helgoland 4 1020.9 5.8 5.5 6.5 95 0.1 0 0 O 21 25 Regen ---
List/Sylt 26 1022.2 5.1 4.6 --- 95 0.0 0 0 O 15 24 Regen ---
Schleswig 43 1022.0 4.2 4.0 4.9 89 0.0 0 0 O 13 26 --- ---
Leuchtturm Kiel 5 1022.0 5.3 4.4 5.5 81 ---- --- --- O 35 45 --- ---
Kiel 27 1022.1 4.5 4.3 4.8 90 0.0 0 0 O 11 19 Dunst oder flacher Nebel ---
Fehmarn 3 1022.8 4.3 3.9 4.8 84 0.0 0 0 O 20 28 --- ---
Arkona 42 1023.8 4.8 4.2 5.4 83 0.0 0 0 O 16 34 --- ---
Norderney 11 1020.6 6.5 6.3 8.5 94 0.0 0 0 NO 19 24 --- ---
Leuchtt. Alte Weser 32 1020.5 4.6 4.4 5.3 95 ---- --- --- O 22 --- --- ---
Cuxhaven 5 1020.9 4.8 4.2 4.9 94 0.4 4 0 O 25 33 Regen ---
Hamburg-Flh 11 1021.4 4.4 3.6 4.7 93 0.1 0 0 O 11 17 leichter Regen ---
Schwerin 59 1022.1 3.9 3.3 4.3 87 0.0 0 0 O 12 21 Dunst oder flacher Nebel ---
Rostock 4 1022.7 3.3 3.3 4.5 87 0.0 0 0 O 9 19 --- ---
Greifswald 2 1023.5 1.2 1.1 4.1 93 0.0 0 0 O 8 14 Dunst oder flacher Nebel ---
Emden 0 1020.3 5.7 5.7 9.2 96 0.0 0 0 N 15 21 Dunst oder flacher Nebel ---
Bremen-Flh. 5 1020.1 5.7 4.7 6.1 97 0.6 4 --- O 10 18 Regen ---
Lüchow 17 1021.6 4.3 3.0 4.6 96 0.0 0 0 O 5 12 Dunst oder flacher Nebel ---
Marnitz 81 1022.1 3.3 2.6 4.0 94 0.0 0 0 SO 8 23 leichter Regen ---
Waren 70 1022.4 3.3 2.7 3.7 86 0.0 0 0 O 11 23 Dunst oder flacher Nebel ---
Neuruppin 38 1022.0 3.5 2.2 4.3 92 0.0 0 0 O 9 19 --- ---
Angermünde 56 1022.9 2.8 2.2 3.8 94 0.0 0 0 O 10 17 Dunst oder flacher Nebel ---
Münster/Osnabr.-Flh. 48 1020.0 7.8 6.6 8.1 97 0.0 1 0 W 7 9 leichter Regen ---
Hannover-Flh. 59 1020.6 5.1 4.2 5.9 93 0.0 0 0 O 12 17 Regen ---
Magdeburg 76 1020.8 4.9 4.1 5.2 99 0.0 1 0 NO 3 10 Dunst oder flacher Nebel ---
Potsdam 81 1021.5 3.9 2.4 4.5 98 0.2 1 0 O 13 22 Regen ---
Berlin-Brandenburg-Flgh. 46 1021.9 4.4 2.5 5.0 88 0.0 --- --- O 14 20 --- ---
Berlin-Tempelhof 48 1021.8 4.4 2.9 4.9 92 0.0 0 0 O 11 17 Regen ---
Berlin-Dahlem 51 1021.5 4.0 2.7 4.9 --- ---- 1 0 O 14 --- leichter Regen ---
Lindenberg 91 1022.1 3.9 2.2 4.4 88 0.0 0 0 O 12 20 Dunst oder flacher Nebel ---
Düsseldorf-Flh. 45 1020.9 5.4 5.4 8.8 100 0.0 0 --- W 3 8 Nebel ---
Essen 150 1020.8 6.8 6.8 7.6 100 0.0 0 0 SW 4 13 Nebel ---
Kahler Asten 839 ------ 3.1 2.8 4.1 100 0.0 0 0 NW 10 16 Regen ---
Bad Lippspringe 157 1020.1 7.2 6.0 7.4 99 0.1 1 0 W 5 11 leichter Regen ---
Fritzlar 174 1020.1 6.6 5.4 8.2 97 ---- 0 0 SW 4 --- leichter Regen ---
Brocken 1142 ------ 0.3 0.1 1.2 100 0.0 0 0 N 10 12 Nebel ---
Leipzig-Flh. 142 1020.4 6.2 4.2 6.4 91 0.0 0 0 SO 5 9 --- ---
Dresden-Flh. 227 1021.5 4.0 3.6 4.8 82 0.0 0 0 S 19 31 --- ---
Cottbus 69 1022.1 5.0 2.7 5.9 79 0.0 0 0 SO 7 13 --- ---
Görlitz 238 1022.5 2.8 2.8 5.1 82 0.0 0 0 S 8 16 --- ---
Aachen 231 1021.3 6.9 6.4 7.7 98 0.0 0 0 N 8 14 Dunst oder flacher Nebel ---
Nürburg 485 1020.7 5.7 4.2 6.8 95 0.0 0 0 N 8 18 --- ---
Köln/Bonn-Flh. 92 1021.0 6.8 6.7 8.7 97 0.0 1 --- N 9 15 Dunst oder flacher Nebel ---
Gießen/Wettenberg 203 1020.2 6.7 5.6 7.9 100 0.0 0 0 W 2 6 leichter Regen ---
Wasserkuppe 921 ------ 2.5 2.4 3.2 100 0.3 2 0 N 14 18 Regen ---
Meiningen 450 1020.4 3.7 2.7 3.8 100 0.1 1 0 S 4 5 Regen ---
Erfurt 316 1020.1 5.4 4.6 5.9 98 0.0 0 --- S 3 3 --- ---
Gera 311 1020.6 4.5 3.3 5.5 90 0.0 0 0 S 11 18 leichter Regen ---
Fichtelberg 1213 ------ -2.2 -2.2 -0.1 98 0.0 0 6 SO 15 20 Schneegriesel ---
Trier 265 1020.6 6.4 6.1 9.3 97 ---- --- 0 NO 8 12 --- ---
Hahn-Flh. 497 1021.0 4.2 4.1 6.2 95 0.0 0 0 N 8 16 --- ---
Frankfurt/M-Flh. 112 1020.1 7.4 5.9 8.4 98 0.0 0 0 O 4 8 Nebel ---
OF-Wetterpark 119 1020.2 6.8 5.9 7.7 98 0.0 0 0 - 0 2 Dunst oder flacher Nebel ---
Würzburg 268 1020.8 4.9 4.0 5.8 95 0.2 0 0 NO 3 5 Regen ---
Bamberg 239 1020.3 5.2 3.9 5.9 98 0.0 1 0 - 0 4 --- ---
Hof 567 1020.7 2.9 1.5 3.2 96 0.0 0 0 SO 5 12 --- ---
Weiden 438 1021.0 3.0 2.2 4.3 85 0.0 1 0 O 5 13 leichter Regen ---
Saarbrücken-Flh. 320 1020.2 7.4 6.4 8.6 92 0.0 0 --- NO 6 11 --- ---
Karlsruhe-Rheinst. 116 1019.8 8.1 7.5 8.6 95 0.0 2 0 NO 5 13 --- ---
Mannheim 96 1020.1 7.7 6.5 8.3 97 0.0 0 0 NW 6 11 Dunst oder flacher Nebel ---
Stuttgart-Flh. 371 1019.1 6.0 6.0 7.1 94 0.1 1 0 NW 9 18 --- ---
Öhringen 276 1020.1 5.7 5.6 6.7 92 0.0 0 0 N 3 8 Dunst oder flacher Nebel ---
Nürnberg-Flh. 314 1020.3 4.8 3.6 5.6 95 0.2 1 0 O 6 8 leichter Regen ---
Regensburg 366 1020.5 3.8 2.8 4.3 98 0.0 --- 0 N 3 9 leichter Regen ---
Straubing 351 1020.1 4.3 2.4 4.3 94 0.0 1 0 SW 4 6 Dunst oder flacher Nebel ---
Großer Arber 1436 ------ -1.0 -1.1 0.0 97 0.0 2 37 S 3 14 leichter Schneefall ---
Lahr 155 1019.7 7.4 6.6 8.5 97 0.4 1 0 N 5 9 Regen ---
Freudenstadt 797 ------ 3.8 3.4 4.8 97 0.3 --- 0 N 6 15 leichter Regen ---
Stötten 734 1019.5 3.6 3.6 4.6 100 0.4 5 0 N 8 14 leichter Regen ---
Augsburg 462 ------ --- --- --- --- ---- --- --- -- --- --- --- ---
München-Flh. 444 1019.8 3.7 3.3 4.7 94 0.0 1 0 NO 8 11 --- ---
Fürstenzell 476 1020.4 2.7 1.7 3.3 98 0.0 1 0 S 4 8 Nebel ---
Feldberg/Schw. 1486 ------ -0.6 -1.7 -0.4 99 0.5 1 18 NO 21 24 leichter Schneefall ---
Konstanz 443 1018.9 6.3 4.9 7.1 97 0.7 3 0 NW 6 10 leichter Regen ---
Kempten 705 1018.8 4.1 4.1 5.6 95 1.3 8 0 S 5 8 leichter Regen ---
Oberstdorf 806 ------ 2.7 2.7 5.5 92 1.0 6 0 S 5 6 leichter Regen ---
Zugspitze 2960 ------ -9.2 -9.2 -8.7 91 ---- --- --- N 6 18 leichter Schneefall ---
Hohenpeißenberg 977 ------ 1.8 1.7 3.2 98 0.1 12 0 NO 4 15 Regen ---

 

  • Wetterzustand
  • Windrichtung und -geschwindigkeit
  • Luftdruck
  • relative Luftfeuchtigkeit
  • Sichtweite
  • Gesamtbedeckungsgrad
  • Niederschlag
  • Sonnenscheindauer

 Höhe:     m über NN
Luftd.:   auf Meereshöhe reduzierter Luftdruck in hPa
TEMP.:   Lufttemperatur in Grad Celsius
T-MIN:   Minimumtemperatur der Luft in 2m Höhe in Grad Celsius, von 18 UTC Vortag bis 06 UTC heute
T-MAX:  Maximumtemperatur der Luft in 2m Höhe in Grad Celsius, von 18 UTC Vortag bis 06 UTC heute
RR1:     Niederschlagsmenge, einstündig, mm ist gleich Liter pro
RR12:   Niederschlagsmenge, 12 stündig, 18 UTC Vortag bis 06 UTC heute in mm ist gleich Liter pro
SSS:     Gesamtschneehöhe
DD:      Windrichtung
FF:       Windgeschwindigkeit letztes 10-Minutenmittel in km/h
FX:       höchste Windspitze während der letzten Stunde in km/h
---:      Wert nicht vorhanden

 

2009-2022

Unwetterwarnungen

Unwetterwarnungen

  Überblick über die aktuelle Warnlage in Deutschland

  Radarbild           

aktueller Radarfilm Deutschland

Mecklenburg Vorpommern/

Brandenburg

aktuelles Wetter und aktuelle Temperatur Region Nordost

Waldbrandgefahr   

Deutschlandkarte mit dem Tageswert des Waldbrand-Gefahrenindex WBI, heute